createdAt,value
2019-02-12T00:01:15.207Z,15.57
2019-02-12T00:03:45.519Z,14.07
2019-02-12T00:06:15.854Z,14.60
2019-02-12T00:08:46.177Z,15.73
2019-02-12T00:11:16.525Z,12.80
2019-02-12T00:13:46.832Z,16.33
2019-02-12T00:16:17.183Z,13.67
2019-02-12T00:18:47.533Z,14.33
2019-02-12T00:21:17.941Z,15.13
2019-02-12T00:23:48.314Z,14.90
2019-02-12T00:26:18.635Z,12.87
2019-02-12T00:28:49.022Z,14.27
2019-02-12T00:31:19.377Z,14.43
2019-02-12T00:33:49.693Z,12.23
2019-02-12T00:36:20.030Z,14.47
2019-02-12T00:38:50.332Z,14.20
2019-02-12T00:41:20.675Z,14.83
2019-02-12T00:43:51.009Z,15.67
2019-02-12T00:46:21.350Z,14.57
2019-02-12T00:48:51.656Z,15.57
2019-02-12T00:51:22.017Z,13.80
2019-02-12T00:53:52.301Z,19.83
2019-02-12T00:56:22.630Z,17.03
2019-02-12T00:58:52.927Z,16.90
2019-02-12T01:01:23.246Z,20.50
2019-02-12T01:03:53.646Z,20.33
2019-02-12T01:06:24.050Z,20.27
2019-02-12T01:08:54.366Z,18.63
2019-02-12T01:11:24.721Z,16.80
2019-02-12T01:13:55.014Z,19.87
2019-02-12T01:16:25.350Z,20.00
2019-02-12T01:18:55.683Z,19.80
2019-02-12T01:21:26.512Z,17.30
2019-02-12T01:23:56.903Z,19.10
2019-02-12T01:26:27.235Z,17.47
2019-02-12T01:28:57.529Z,18.30
2019-02-12T01:31:27.881Z,16.93
2019-02-12T01:33:58.166Z,19.33
2019-02-12T01:36:28.502Z,17.10
2019-02-12T01:38:59.049Z,18.43
2019-02-12T01:41:29.391Z,21.40
2019-02-12T01:43:59.694Z,19.30
2019-02-12T01:46:30.035Z,17.20
2019-02-12T01:49:00.435Z,18.73
2019-02-12T01:51:35.073Z,19.30
2019-02-12T01:54:03.671Z,18.90
2019-02-12T01:56:34.008Z,16.03
2019-02-12T01:59:04.773Z,18.80
2019-02-12T02:01:35.105Z,18.87
2019-02-12T02:04:05.440Z,16.97
2019-02-12T02:06:35.766Z,17.73
2019-02-12T02:09:07.054Z,19.48
2019-02-12T02:11:37.502Z,19.50
2019-02-12T02:14:07.807Z,19.73
2019-02-12T02:16:38.313Z,20.23
2019-02-12T02:19:08.619Z,22.33
2019-02-12T02:21:44.099Z,20.27
2019-02-12T02:24:10.938Z,19.57
2019-02-12T02:26:41.454Z,19.00
2019-02-12T02:29:11.956Z,20.50
2019-02-12T02:31:42.323Z,22.00
2019-02-12T02:34:13.190Z,22.20
2019-02-12T02:36:43.604Z,23.23
2019-02-12T02:39:14.280Z,21.97
2019-02-12T02:41:44.702Z,21.07
2019-02-12T02:44:15.230Z,21.97
2019-02-12T02:46:45.578Z,20.17
2019-02-12T02:49:16.107Z,20.27
2019-02-12T02:51:53.751Z,19.47
2019-02-12T02:54:18.415Z,22.23
2019-02-12T02:56:49.154Z,23.23
2019-02-12T02:59:19.659Z,23.27
2019-02-12T03:01:50.000Z,21.23
2019-02-12T03:04:20.357Z,20.83
2019-02-12T03:06:50.682Z,20.53
2019-02-12T03:09:20.982Z,18.53
2019-02-12T03:11:51.388Z,22.20
2019-02-12T03:14:21.695Z,22.90
2019-02-12T03:16:52.133Z,24.63
2019-02-12T03:19:22.486Z,26.20
2019-02-12T03:21:52.881Z,21.83
2019-02-12T03:24:23.262Z,21.43
2019-02-12T03:26:53.633Z,22.43
2019-02-12T03:29:24.047Z,23.30
2019-02-12T03:31:54.350Z,24.03
2019-02-12T03:34:24.679Z,22.50
2019-02-12T03:36:54.982Z,23.43
2019-02-12T03:39:25.341Z,23.27
2019-02-12T03:41:55.667Z,24.77
2019-02-12T03:44:26.067Z,24.50
2019-02-12T03:46:56.386Z,28.13
2019-02-12T03:49:26.728Z,28.53
2019-02-12T03:51:57.037Z,27.57
2019-02-12T03:54:28.357Z,27.43
2019-02-12T03:56:58.685Z,26.07
2019-02-12T03:59:29.057Z,25.83
2019-02-12T04:01:59.362Z,28.57
2019-02-12T04:04:29.685Z,26.30
2019-02-12T04:07:00.025Z,25.20
2019-02-12T04:09:30.399Z,24.77
2019-02-12T04:12:01.205Z,24.93
2019-02-12T04:14:31.772Z,26.90
2019-02-12T04:17:02.091Z,27.13
2019-02-12T04:19:32.544Z,26.07
2019-02-12T04:22:06.570Z,27.97
2019-02-12T04:24:36.914Z,26.70
2019-02-12T04:27:07.220Z,23.73
2019-02-12T04:29:37.584Z,24.07
2019-02-12T04:32:07.971Z,25.50
2019-02-12T04:34:38.302Z,28.10
2019-02-12T04:37:08.709Z,29.20
2019-02-12T04:39:39.069Z,26.57
2019-02-12T04:42:10.349Z,25.23
2019-02-12T04:44:40.695Z,26.73
2019-02-12T04:47:11.014Z,26.03
2019-02-12T04:49:41.376Z,25.70
2019-02-12T04:52:11.773Z,27.13
2019-02-12T04:54:42.209Z,28.40
2019-02-12T04:57:12.567Z,29.37
2019-02-12T04:59:42.895Z,27.60
2019-02-12T05:02:13.237Z,27.73
2019-02-12T05:04:43.595Z,28.02
2019-02-12T05:07:14.225Z,28.70
2019-02-12T05:09:46.530Z,31.60
2019-02-12T05:12:18.568Z,31.03
2019-02-12T05:14:49.100Z,35.50
2019-02-12T05:17:19.585Z,36.13
2019-02-12T05:19:50.232Z,33.00
2019-02-12T05:22:20.753Z,33.17
2019-02-12T05:24:51.616Z,33.50
2019-02-12T05:27:22.220Z,32.63
2019-02-12T05:29:52.943Z,34.67
2019-02-12T05:32:23.553Z,35.43
2019-02-12T05:34:55.786Z,31.97
2019-02-12T05:37:26.084Z,31.23
2019-02-12T05:39:56.860Z,31.47
2019-02-12T05:42:27.191Z,36.80
2019-02-12T05:44:57.672Z,36.23
2019-02-12T05:47:28.052Z,37.30
2019-02-12T05:50:02.006Z,36.83
2019-02-12T05:52:32.317Z,39.10
2019-02-12T05:55:03.021Z,35.83
2019-02-12T05:57:33.426Z,32.80
2019-02-12T06:00:04.636Z,31.43
2019-02-12T06:02:35.578Z,29.43
2019-02-12T06:05:06.106Z,36.23
2019-02-12T06:07:36.524Z,35.47
2019-02-12T06:10:08.179Z,32.90
2019-02-12T06:12:38.498Z,36.23
2019-02-12T06:15:11.357Z,36.50
2019-02-12T06:17:41.655Z,51.30
2019-02-12T06:20:11.992Z,34.23
2019-02-12T06:22:42.394Z,37.13
2019-02-12T06:25:12.852Z,34.90
2019-02-12T06:27:43.157Z,35.93
2019-02-12T06:30:13.503Z,35.00
2019-02-12T06:32:43.883Z,33.73
2019-02-12T06:35:14.254Z,34.17
2019-02-12T06:37:44.554Z,35.70
2019-02-12T06:40:14.880Z,32.80
2019-02-12T06:42:45.186Z,37.23
2019-02-12T06:45:15.535Z,39.00
2019-02-12T06:47:47.054Z,34.37
2019-02-12T06:50:18.479Z,34.07
2019-02-12T06:52:49.765Z,39.93
2019-02-12T06:55:20.094Z,40.73
2019-02-12T06:57:50.414Z,34.67
2019-02-12T07:00:20.756Z,33.83
2019-02-12T07:03:15.858Z,32.43
2019-02-12T07:05:56.267Z,30.60
2019-02-12T07:09:12.636Z,32.07
2019-02-12T07:12:05.491Z,28.93
2019-02-12T07:15:09.774Z,29.30
2019-02-12T07:18:23.910Z,33.20
2019-02-12T07:21:14.245Z,43.33
2019-02-12T07:24:27.475Z,40.17
2019-02-12T07:27:26.683Z,31.60
2019-02-12T07:30:31.785Z,39.10
2019-02-12T07:34:10.400Z,32.53
2019-02-12T07:37:09.188Z,37.23
2019-02-12T07:40:03.087Z,32.97
2019-02-12T07:43:03.315Z,29.20
2019-02-12T07:46:10.890Z,27.93
2019-02-12T07:49:06.686Z,30.60
2019-02-12T07:52:39.535Z,27.90
2019-02-12T07:55:51.405Z,36.60
2019-02-12T07:58:58.995Z,25.47
2019-02-12T08:02:21.589Z,28.10
2019-02-12T08:05:39.379Z,28.03
2019-02-12T08:08:52.808Z,26.20
2019-02-12T08:11:37.885Z,43.53
2019-02-12T08:14:38.312Z,37.43
2019-02-12T08:17:32.806Z,25.83
2019-02-12T08:20:46.807Z,26.93
2019-02-12T08:23:41.724Z,25.83
2019-02-12T08:26:20.302Z,28.20
2019-02-12T08:29:51.242Z,27.07
2019-02-12T08:32:45.660Z,26.17
2019-02-12T08:35:57.543Z,24.50
2019-02-12T08:38:56.273Z,25.93
2019-02-12T08:42:02.373Z,25.93
2019-02-12T08:44:54.144Z,25.97
2019-02-12T08:47:54.092Z,24.07
2019-02-12T08:50:58.178Z,25.83
2019-02-12T08:54:27.941Z,25.67
2019-02-12T08:57:24.265Z,27.03
2019-02-12T09:00:10.862Z,25.77
2019-02-12T09:03:24.222Z,22.47
2019-02-12T09:06:52.123Z,23.87
2019-02-12T09:09:58.165Z,21.80
2019-02-12T09:13:08.008Z,22.13
2019-02-12T09:16:21.652Z,19.70
2019-02-12T09:19:05.009Z,21.83
2019-02-12T09:22:28.333Z,21.13
2019-02-12T09:25:06.399Z,24.80
2019-02-12T09:28:12.410Z,23.60
2019-02-12T09:31:23.540Z,21.10
2019-02-12T09:34:34.042Z,24.23
2019-02-12T09:37:50.810Z,22.57
2019-02-12T09:41:07.206Z,19.87
2019-02-12T09:44:23.732Z,22.03
2019-02-12T09:47:20.870Z,20.23
2019-02-12T09:50:38.508Z,23.30
2019-02-12T09:53:58.739Z,19.98
2019-02-12T09:57:13.046Z,21.50
2019-02-12T10:00:24.623Z,20.63
2019-02-12T10:03:33.233Z,21.00
2019-02-12T10:06:30.781Z,21.77
2019-02-12T10:09:41.767Z,21.73
2019-02-12T10:12:34.250Z,21.60
2019-02-12T10:15:28.290Z,21.30
2019-02-12T10:18:36.754Z,19.73
2019-02-12T10:21:43.979Z,22.90
2019-02-12T10:24:28.674Z,21.70
2019-02-12T10:27:23.607Z,23.40
2019-02-12T10:30:33.889Z,24.73
2019-02-12T10:33:04.198Z,22.37
2019-02-12T10:35:34.540Z,22.67
2019-02-12T10:38:04.842Z,24.10
2019-02-12T10:40:35.180Z,21.63
2019-02-12T10:43:05.469Z,22.50
2019-02-12T10:45:35.834Z,22.63
2019-02-12T10:48:06.153Z,19.60
2019-02-12T10:50:36.481Z,21.67
2019-02-12T10:53:08.777Z,21.23
2019-02-12T10:55:38.922Z,19.97
2019-02-12T10:58:09.235Z,20.87
2019-02-12T11:00:39.560Z,20.37
2019-02-12T11:03:09.877Z,21.27
2019-02-12T11:05:40.204Z,21.50
2019-02-12T11:08:10.541Z,20.90
2019-02-12T11:10:40.943Z,20.20
2019-02-12T11:13:11.339Z,21.90
2019-02-12T11:15:41.706Z,24.40
2019-02-12T11:18:12.002Z,23.03
2019-02-12T11:20:42.507Z,22.25
2019-02-12T11:23:12.799Z,24.57
2019-02-12T11:25:43.140Z,19.13
2019-02-12T11:28:13.579Z,20.73
2019-02-12T11:30:43.974Z,22.15
2019-02-12T11:33:14.288Z,23.10
2019-02-12T11:35:44.776Z,21.52
2019-02-12T11:38:15.242Z,21.93
2019-02-12T11:40:45.573Z,21.13
2019-02-12T11:43:15.959Z,24.15
2019-02-12T11:45:46.488Z,20.00
2019-02-12T11:48:17.985Z,23.30
2019-02-12T11:50:48.537Z,20.80
2019-02-12T11:53:18.822Z,21.13
2019-02-12T11:55:49.267Z,23.42
2019-02-12T11:58:19.536Z,20.23
2019-02-12T12:00:53.826Z,22.83
2019-02-12T12:03:24.130Z,22.10
2019-02-12T12:05:54.494Z,21.77
2019-02-12T12:08:24.982Z,19.07
2019-02-12T12:10:55.387Z,20.03
2019-02-12T12:13:25.735Z,21.47
2019-02-12T12:15:56.074Z,17.57
2019-02-12T12:18:26.378Z,17.83
2019-02-12T12:20:56.724Z,17.33
2019-02-12T12:23:27.037Z,12.23
2019-02-12T12:25:57.500Z,12.27
2019-02-12T12:28:27.804Z,11.33
2019-02-12T12:30:58.400Z,11.63
2019-02-12T12:33:28.709Z,15.33
2019-02-12T12:35:59.036Z,10.47
2019-02-12T12:38:29.374Z,12.33
2019-02-12T12:40:59.714Z,10.13
2019-02-12T12:43:30.082Z,13.07
2019-02-12T12:46:00.449Z,9.67
2019-02-12T12:48:30.741Z,10.80
2019-02-12T12:51:01.076Z,8.53
2019-02-12T12:53:31.464Z,12.47
2019-02-12T12:56:01.823Z,11.63
2019-02-12T12:58:32.188Z,8.80
2019-02-12T13:01:02.585Z,9.07
2019-02-12T13:03:32.968Z,10.63
2019-02-12T13:06:03.305Z,8.17
2019-02-12T13:08:33.634Z,7.23
2019-02-12T13:11:04.029Z,6.33
2019-02-12T13:13:34.363Z,9.07
2019-02-12T13:16:04.738Z,5.03
2019-02-12T13:18:35.109Z,13.37
2019-02-12T13:21:05.645Z,8.70
2019-02-12T13:23:37.270Z,7.27
2019-02-12T13:26:07.609Z,11.93
2019-02-12T13:28:42.668Z,12.33
2019-02-12T13:31:10.102Z,6.33
2019-02-12T13:33:40.386Z,7.90
2019-02-12T13:36:10.725Z,6.80
2019-02-12T13:38:41.032Z,10.40
2019-02-12T13:41:11.338Z,8.10
2019-02-12T13:43:41.629Z,9.03
2019-02-12T13:46:12.035Z,10.43
2019-02-12T13:48:42.344Z,10.70
2019-02-12T13:51:12.681Z,14.10
2019-02-12T13:53:43.035Z,9.10
2019-02-12T13:56:13.438Z,8.63
2019-02-12T13:58:43.719Z,8.67
2019-02-12T14:01:14.083Z,7.30
2019-02-12T14:03:44.441Z,8.47
2019-02-12T14:06:14.769Z,9.10
2019-02-12T14:08:45.050Z,7.53
2019-02-12T14:11:15.351Z,9.90
2019-02-12T14:13:45.666Z,8.03
2019-02-12T14:16:15.965Z,12.13
2019-02-12T14:18:46.384Z,8.60
2019-02-12T14:21:16.753Z,10.37
2019-02-12T14:23:47.283Z,10.00
2019-02-12T14:26:17.573Z,8.85
2019-02-12T14:28:48.054Z,10.83
2019-02-12T14:31:18.393Z,10.27
2019-02-12T14:33:48.844Z,8.30
2019-02-12T14:36:20.348Z,11.03
2019-02-12T14:38:50.857Z,10.20
2019-02-12T14:41:22.272Z,8.33
2019-02-12T14:43:52.793Z,10.63
2019-02-12T14:46:23.111Z,7.27
2019-02-12T14:48:53.474Z,7.97
2019-02-12T14:51:23.786Z,7.80
2019-02-12T14:53:54.174Z,8.73
2019-02-12T14:56:24.491Z,9.10
2019-02-12T14:58:54.776Z,8.70
2019-02-12T15:01:25.130Z,8.70
2019-02-12T15:03:55.450Z,7.40
2019-02-12T15:06:25.789Z,8.43
2019-02-12T15:08:56.084Z,8.03
2019-02-12T15:11:26.382Z,7.27
2019-02-12T15:13:56.730Z,8.57
2019-02-12T15:16:27.133Z,10.63
2019-02-12T15:18:57.459Z,8.77
2019-02-12T15:21:27.753Z,11.07
2019-02-12T15:23:58.166Z,8.80
2019-02-12T15:26:28.493Z,9.60
2019-02-12T15:28:58.819Z,8.83
2019-02-12T15:31:29.177Z,7.50
2019-02-12T15:33:59.473Z,7.83
2019-02-12T15:36:30.170Z,18.43
2019-02-12T15:39:00.499Z,10.80
2019-02-12T15:41:30.836Z,7.63
2019-02-12T15:44:01.165Z,11.13
2019-02-12T15:46:31.480Z,9.73
2019-02-12T15:49:01.799Z,9.00
2019-02-12T15:51:32.137Z,10.83
2019-02-12T15:54:02.525Z,10.97
2019-02-12T15:56:32.812Z,12.50
2019-02-12T15:59:03.175Z,13.07
2019-02-12T16:01:33.503Z,15.80
2019-02-12T16:04:04.343Z,14.70
2019-02-12T16:06:34.658Z,18.53
2019-02-12T16:09:06.385Z,17.17
2019-02-12T16:11:36.767Z,18.80
2019-02-12T16:14:10.955Z,17.07
2019-02-12T16:16:41.296Z,17.60
2019-02-12T16:19:11.601Z,14.50
2019-02-12T16:21:41.972Z,17.80
2019-02-12T16:24:12.303Z,17.27
2019-02-12T16:26:42.606Z,19.30
2019-02-12T16:29:12.910Z,14.20
2019-02-12T16:31:43.222Z,16.57
2019-02-12T16:34:13.586Z,14.37
2019-02-12T16:36:43.878Z,18.83
2019-02-12T16:39:14.364Z,19.17
2019-02-12T16:41:44.663Z,13.87
2019-02-12T16:44:14.982Z,20.33
2019-02-12T16:46:45.398Z,20.57
2019-02-12T16:49:16.602Z,20.30
2019-02-12T16:51:46.901Z,15.23
2019-02-12T16:54:17.334Z,16.30
2019-02-12T16:56:47.613Z,18.27
2019-02-12T16:59:17.947Z,18.50
2019-02-12T17:01:48.275Z,49.27
2019-02-12T17:04:20.047Z,38.40
2019-02-12T17:06:50.920Z,33.87
2019-02-12T17:09:21.296Z,27.00
2019-02-12T17:11:51.876Z,20.57
2019-02-12T17:14:26.083Z,10.90
2019-02-12T17:16:56.525Z,11.20
2019-02-12T17:19:27.183Z,20.50
2019-02-12T17:21:57.776Z,16.83
2019-02-12T17:24:28.165Z,14.53
2019-02-12T17:26:58.638Z,13.27
2019-02-12T17:29:29.017Z,13.63
2019-02-12T17:31:59.318Z,20.53
2019-02-12T17:34:29.725Z,19.67
2019-02-12T17:37:00.144Z,10.47
2019-02-12T17:39:31.342Z,14.05
2019-02-12T17:42:01.983Z,14.33
2019-02-12T17:44:32.664Z,18.00
2019-02-12T17:47:02.962Z,24.77
2019-02-12T17:49:33.285Z,14.00
2019-02-12T17:52:04.748Z,21.53
2019-02-12T17:54:35.260Z,22.10
2019-02-12T17:57:05.578Z,18.27
2019-02-12T17:59:36.039Z,19.55
2019-02-12T18:02:06.343Z,17.93
2019-02-12T18:04:36.656Z,17.77
2019-02-12T18:07:06.952Z,24.07
2019-02-12T18:09:37.313Z,17.90
2019-02-12T18:12:07.691Z,17.43
2019-02-12T18:14:38.037Z,17.40
2019-02-12T18:17:08.421Z,22.93
2019-02-12T18:19:38.768Z,21.20
2019-02-12T18:22:09.942Z,21.70
2019-02-12T18:24:40.315Z,23.63
2019-02-12T18:27:10.621Z,22.13
2019-02-12T18:29:40.986Z,35.13
2019-02-12T18:32:11.323Z,26.90
2019-02-12T18:34:41.675Z,27.10
2019-02-12T18:37:12.271Z,26.67
2019-02-12T18:39:43.161Z,29.47
2019-02-12T18:42:13.476Z,29.93
2019-02-12T18:44:43.850Z,27.87
2019-02-12T18:47:14.175Z,32.47
2019-02-12T18:49:45.287Z,29.27
2019-02-12T18:52:15.598Z,29.80
2019-02-12T18:54:45.942Z,28.20
2019-02-12T18:57:16.236Z,32.73
2019-02-12T18:59:47.077Z,27.77
2019-02-12T19:02:17.407Z,30.57
2019-02-12T19:04:47.762Z,32.27
2019-02-12T19:07:18.254Z,33.37
2019-02-12T19:09:48.656Z,30.83
2019-02-12T19:12:18.966Z,31.20
2019-02-12T19:14:49.293Z,32.70
2019-02-12T19:17:19.597Z,29.67
2019-02-12T19:19:49.927Z,24.57
2019-02-12T19:22:20.291Z,32.87
2019-02-12T19:24:50.648Z,31.40
2019-02-12T19:27:20.960Z,29.33
2019-02-12T19:29:51.297Z,28.23
2019-02-12T19:32:21.598Z,25.70
2019-02-12T19:34:52.512Z,25.70
2019-02-12T19:37:23.930Z,27.90
2019-02-12T19:39:54.428Z,24.77
2019-02-12T19:42:24.734Z,30.80
2019-02-12T19:44:55.082Z,34.70
2019-02-12T19:47:25.390Z,29.83
2019-02-12T19:49:56.787Z,35.30
2019-02-12T19:52:28.123Z,33.17
2019-02-12T19:54:58.446Z,38.10
2019-02-12T19:57:28.759Z,41.80
2019-02-12T19:59:59.154Z,50.40
2019-02-12T20:02:29.708Z,53.97
2019-02-12T20:05:00.183Z,48.07
2019-02-12T20:07:30.809Z,48.97
2019-02-12T20:10:01.231Z,41.33
2019-02-12T20:12:32.660Z,46.73
2019-02-12T20:15:03.818Z,31.47
2019-02-12T20:17:34.566Z,30.33
2019-02-12T20:20:05.897Z,29.30
2019-02-12T20:22:36.328Z,28.12
2019-02-12T20:25:06.873Z,30.87
2019-02-12T20:27:37.229Z,29.67
2019-02-12T20:30:09.083Z,27.57
2019-02-12T20:32:40.339Z,23.92
2019-02-12T20:35:11.880Z,28.73
2019-02-12T20:37:43.374Z,27.00
2019-02-12T20:40:13.861Z,29.57
2019-02-12T20:42:45.103Z,46.73
2019-02-12T20:45:16.401Z,57.50
2019-02-12T20:47:46.878Z,69.97
2019-02-12T20:50:17.351Z,93.87
2019-02-12T20:52:47.847Z,63.77
2019-02-12T20:55:18.398Z,49.38
2019-02-12T20:57:48.810Z,42.50
2019-02-12T21:00:19.447Z,31.90
2019-02-12T21:02:50.430Z,33.43
2019-02-12T21:05:20.945Z,35.90
2019-02-12T21:07:51.390Z,40.67
2019-02-12T21:10:21.787Z,43.10
2019-02-12T21:12:52.266Z,45.43
2019-02-12T21:15:22.821Z,49.03
2019-02-12T21:17:53.143Z,43.07
2019-02-12T21:20:23.454Z,46.53
2019-02-12T21:22:53.839Z,42.87
2019-02-12T21:25:24.225Z,57.67
2019-02-12T21:27:54.588Z,55.90
2019-02-12T21:30:25.309Z,39.57
2019-02-12T21:32:55.686Z,39.13
2019-02-12T21:35:25.979Z,38.93
2019-02-12T21:37:56.570Z,43.80
2019-02-12T21:40:26.927Z,42.87
2019-02-12T21:42:57.312Z,40.77
2019-02-12T21:45:41.372Z,48.77
2019-02-12T21:48:12.775Z,53.73
2019-02-12T21:50:43.118Z,50.93
2019-02-12T21:53:13.602Z,44.93
2019-02-12T21:55:44.052Z,45.77
2019-02-12T21:58:14.421Z,48.97
2019-02-12T22:00:44.779Z,49.97
2019-02-12T22:03:15.175Z,49.47
2019-02-12T22:05:45.589Z,48.27
2019-02-12T22:08:15.940Z,50.83
2019-02-12T22:10:46.719Z,51.37
2019-02-12T22:13:17.453Z,56.47
2019-02-12T22:15:47.778Z,45.97
2019-02-12T22:18:18.259Z,45.77
2019-02-12T22:20:48.576Z,40.20
2019-02-12T22:23:19.258Z,30.33
2019-02-12T22:25:49.769Z,31.50
2019-02-12T22:28:21.068Z,28.20
2019-02-12T22:30:51.399Z,29.97
2019-02-12T22:33:21.725Z,26.27
2019-02-12T22:35:52.249Z,34.20
2019-02-12T22:38:22.834Z,23.50
2019-02-12T22:40:53.166Z,27.03
2019-02-12T22:43:24.343Z,26.37
2019-02-12T22:45:54.683Z,26.03
2019-02-12T22:48:25.147Z,29.13
2019-02-12T22:50:55.450Z,27.57
2019-02-12T22:53:25.878Z,27.10
2019-02-12T22:55:56.614Z,27.53
2019-02-12T22:58:27.075Z,24.73
2019-02-12T23:01:05.800Z,30.93
2019-02-12T23:03:37.205Z,30.37
2019-02-12T23:06:07.606Z,51.67
2019-02-12T23:08:38.010Z,34.50
2019-02-12T23:11:08.407Z,34.93
2019-02-12T23:13:38.853Z,38.53
2019-02-12T23:16:09.376Z,30.07
2019-02-12T23:18:40.018Z,28.95
2019-02-12T23:21:10.366Z,29.63
2019-02-12T23:23:40.785Z,30.08
2019-02-12T23:26:11.163Z,34.90
2019-02-12T23:28:41.696Z,24.47
2019-02-12T23:31:12.431Z,30.13
2019-02-12T23:33:43.875Z,31.40
2019-02-12T23:36:14.267Z,25.15
2019-02-12T23:38:44.738Z,27.10
2019-02-12T23:41:15.173Z,29.40
2019-02-12T23:43:45.593Z,31.10
2019-02-12T23:46:15.918Z,29.53
2019-02-12T23:48:46.250Z,31.43
2019-02-12T23:51:17.486Z,29.23
2019-02-12T23:53:48.002Z,43.43
2019-02-12T23:56:18.541Z,41.57
2019-02-12T23:58:49.204Z,52.60
